Time;durP1;ratioP1;P1;durP2;ratioP2;P2;SDS_P1;SDS_P2;PMS_P1;PMS_P2;Temp;Humidity;BMP_temperature;BMP_pressure;BME280_temperature;BME280_humidity;BME280_pressure;Samples;Min_cycle;Max_cycle;Signal;HPM_P1;HPM_P2
2023/08/08 04:05:16;;;;;;;9.00;1.77;;;;;;;16.47;88.15;100639.47;5620019;31;77672;-60
2023/08/08 04:08:19;;;;;;;2.08;1.58;;;;;;;16.47;88.15;100639.47;5603706;31;33341;-59
2023/08/08 04:11:23;;;;;;;2.40;1.40;;;;;;;16.12;88.59;100650.13;5603794;31;33711;-60
2023/08/08 04:14:25;;;;;;;2.78;1.67;;;;;;;16.12;81.04;100654.75;5595987;31;34493;-60
2023/08/08 04:17:28;;;;;;;2.58;1.42;;;;;;;16.09;76.68;100660.78;5583934;31;34139;-60
2023/08/08 04:20:30;;;;;;;2.60;1.40;;;;;;;16.09;77.12;100667.00;5583859;31;33604;-60
2023/08/08 04:23:32;;;;;;;1.52;1.40;;;;;;;16.11;79.74;100675.59;5582703;31;33656;-60
2023/08/08 04:26:35;;;;;;;3.05;1.62;;;;;;;16.10;77.76;100673.19;5583782;32;33540;-60
2023/08/08 04:29:37;;;;;;;2.17;1.30;;;;;;;16.31;90.93;100673.47;5583917;31;33504;-59
2023/08/08 04:32:40;;;;;;;2.83;1.40;;;;;;;16.21;75.37;100667.19;5583738;32;33500;-60
2023/08/08 04:35:42;;;;;;;4.20;1.30;;;;;;;16.29;78.02;100676.50;5583910;31;34341;-59
2023/08/08 04:38:45;;;;;;;3.83;1.40;;;;;;;16.40;76.21;100677.00;5583803;31;34276;-60
2023/08/08 04:41:47;;;;;;;3.28;1.45;;;;;;;16.40;75.87;100687.84;5583692;32;33542;-60
2023/08/08 04:44:49;;;;;;;2.72;1.55;;;;;;;16.39;87.88;100678.09;5583710;31;33661;-60
2023/08/08 04:47:52;;;;;;;2.47;1.70;;;;;;;16.48;81.46;100688.97;5583627;31;34219;-60
2023/08/08 04:50:54;;;;;;;2.60;1.45;;;;;;;16.63;98.28;100685.84;5583787;32;33699;-60
2023/08/08 04:53:56;;;;;;;7.60;1.55;;;;;;;16.52;72.13;100679.12;5583584;32;33811;-60
2023/08/08 04:56:59;;;;;;;3.33;1.70;;;;;;;16.61;70.51;100679.94;5583611;32;33739;-60
2023/08/08 05:00:05;;;;;;;2.12;1.40;;;;;;;16.60;70.83;100681.88;5583513;32;34225;-60
2023/08/08 05:03:07;;;;;;;2.75;1.37;;;;;;;16.74;69.02;100681.75;5583312;31;33701;-60
2023/08/08 05:06:09;;;;;;;3.37;1.60;;;;;;;16.83;69.77;100681.81;5583455;32;34431;-60
2023/08/08 05:09:12;;;;;;;3.25;1.80;;;;;;;16.93;71.41;100680.72;5583657;32;34365;-61
2023/08/08 05:12:14;;;;;;;3.30;1.58;;;;;;;17.04;77.87;100688.22;5583288;31;34463;-62
2023/08/08 05:15:17;;;;;;;4.45;1.80;;;;;;;17.08;69.85;100689.16;5576207;31;33344;-62
2023/08/08 05:18:19;;;;;;;3.65;1.50;;;;;;;17.11;67.63;100685.03;5570172;32;33913;-62
2023/08/08 05:21:21;;;;;;;7.37;1.90;;;;;;;17.13;67.71;100682.81;5570202;32;34022;-62
2023/08/08 05:24:24;;;;;;;6.37;2.22;;;;;;;17.14;72.55;100692.53;5570147;32;34361;-62
2023/08/08 05:27:26;;;;;;;1.87;1.50;;;;;;;17.27;68.79;100704.34;5570212;32;33714;-62
2023/08/08 05:30:28;;;;;;;5.97;1.75;;;;;;;17.27;65.51;100702.44;5570151;32;34309;-62
2023/08/08 05:33:31;;;;;;;2.87;1.60;;;;;;;17.51;67.46;100695.75;5569888;32;33541;-62
2023/08/08 05:36:35;;;;;;;3.35;1.65;;;;;;;17.62;63.43;100702.47;5570041;32;34219;-62
2023/08/08 05:39:37;;;;;;;7.18;1.80;;;;;;;17.83;64.01;100703.44;5569519;32;33651;-61
2023/08/08 05:42:40;;;;;;;2.33;1.45;;;;;;;17.90;65.77;100702.16;5569778;32;34240;-62
2023/08/08 05:45:42;;;;;;;4.20;1.98;;;;;;;18.12;67.91;100707.38;5569867;32;33897;-61
2023/08/08 05:48:46;;;;;;;5.32;1.98;;;;;;;18.16;63.18;100694.75;5569938;32;33582;-61
2023/08/08 05:51:50;;;;;;;3.00;1.62;;;;;;;18.33;67.99;100707.47;5569755;32;33514;-61
2023/08/08 05:54:52;;;;;;;4.53;1.70;;;;;;;18.21;63.35;100712.75;5569892;32;33615;-61
2023/08/08 05:57:54;;;;;;;3.25;1.80;;;;;;;18.40;71.31;100707.75;5569549;32;34361;-61
2023/08/08 06:00:56;;;;;;;4.65;2.03;;;;;;;18.15;60.70;100711.37;5569635;32;33661;-61
2023/08/08 06:03:59;;;;;;;2.95;1.50;;;;;;;18.27;59.35;100722.34;5569427;32;34330;-61
2023/08/08 06:07:02;;;;;;;13.98;2.42;;;;;;;18.36;62.87;100719.59;5569587;32;33593;-61
2023/08/08 06:10:05;;;;;;;3.53;1.67;;;;;;;18.64;65.44;100722.69;5569412;32;33627;-61
2023/08/08 06:13:07;;;;;;;3.03;1.92;;;;;;;18.60;59.90;100716.31;5568931;32;34302;-61
2023/08/08 06:16:10;;;;;;;3.87;1.70;;;;;;;18.65;60.21;100708.78;5569470;32;33570;-61
2023/08/08 06:19:14;;;;;;;4.25;1.70;;;;;;;18.76;67.49;100720.91;5569171;32;34244;-60
2023/08/08 06:22:17;;;;;;;3.40;1.33;;;;;;;18.98;65.16;100717.12;5569420;32;33567;-59
2023/08/08 06:25:19;;;;;;;5.00;1.70;;;;;;;19.15;73.35;100713.50;5567376;32;33765;-60
2023/08/08 06:28:22;;;;;;;4.40;1.75;;;;;;;19.06;58.50;100714.69;5567578;32;33587;-59
2023/08/08 06:31:24;;;;;;;13.07;2.60;;;;;;;18.97;57.25;100720.97;5569451;32;34289;-61
2023/08/08 06:34:27;;;;;;;6.15;1.85;;;;;;;18.76;62.28;100729.06;5568978;32;33511;-59
2023/08/08 06:37:29;;;;;;;4.62;1.90;;;;;;;18.78;58.74;100726.03;5567235;32;34767;-59
2023/08/08 06:40:33;;;;;;;2.87;1.92;;;;;;;18.71;57.02;100731.16;5569276;32;33676;-59
2023/08/08 06:43:36;;;;;;;5.00;1.65;;;;;;;18.78;59.14;100715.16;5569396;31;34561;-59
2023/08/08 06:46:39;;;;;;;6.60;2.10;;;;;;;19.09;59.60;100727.63;5562628;32;33800;-59
2023/08/08 06:49:41;;;;;;;5.53;1.80;;;;;;;19.19;63.08;100728.03;5567090;32;33782;-60
2023/08/08 06:52:44;;;;;;;3.03;1.83;;;;;;;19.23;60.60;100728.94;5562450;32;34320;-60
2023/08/08 06:55:46;;;;;;;4.32;2.03;;;;;;;19.31;59.58;100738.19;5553669;32;34306;-60
2023/08/08 06:58:48;;;;;;;3.97;1.92;;;;;;;19.30;56.34;100730.34;5549757;32;33230;-59
2023/08/08 07:01:50;;;;;;;6.53;1.80;;;;;;;19.43;61.99;100727.38;5549415;32;34296;-60
2023/08/08 07:04:53;;;;;;;3.00;1.50;;;;;;;19.50;58.25;100732.28;5549377;32;34381;-59
2023/08/08 07:07:55;;;;;;;4.37;1.75;;;;;;;19.36;54.91;100724.38;5549221;32;34185;-59
2023/08/08 07:10:58;;;;;;;5.55;1.77;;;;;;;19.39;60.03;100723.72;5549030;32;33745;-60
2023/08/08 07:14:00;;;;;;;5.75;1.92;;;;;;;19.28;56.24;100735.34;5549140;32;33511;-59
2023/08/08 07:17:03;;;;;;;5.05;1.85;;;;;;;19.31;55.42;100732.75;5549377;32;33601;-59
2023/08/08 07:20:06;;;;;;;3.30;1.98;;;;;;;19.18;55.65;100739.22;5549252;32;33572;-60
2023/08/08 07:23:08;;;;;;;4.82;1.92;;;;;;;19.27;58.29;100736.44;5549138;32;34326;-60
2023/08/08 07:26:10;;;;;;;4.28;1.87;;;;;;;19.33;55.64;100735.91;5549020;32;33615;-59
2023/08/08 07:29:13;;;;;;;7.00;1.80;;;;;;;19.38;55.59;100743.09;5549255;32;33499;-62
2023/08/08 07:32:15;;;;;;;4.43;1.77;;;;;;;19.36;60.87;100737.19;5548921;32;33693;-61
2023/08/08 07:35:18;;;;;;;3.78;1.98;;;;;;;19.22;56.50;100745.59;5549244;32;33567;-62
2023/08/08 07:38:20;;;;;;;5.18;2.05;;;;;;;19.23;54.67;100747.19;5548822;32;33278;-61
2023/08/08 07:41:24;;;;;;;3.20;1.80;;;;;;;19.14;53.93;100752.69;5548508;32;33689;-60
2023/08/08 07:44:26;;;;;;;5.40;1.85;;;;;;;19.08;54.97;100748.56;5548621;32;33626;-60
2023/08/08 07:47:29;;;;;;;4.30;1.80;;;;;;;19.02;53.60;100752.59;5549163;32;33649;-60
2023/08/08 07:50:31;;;;;;;4.87;1.90;;;;;;;19.09;55.56;100754.78;5548451;32;33347;-60
2023/08/08 07:53:34;;;;;;;3.30;1.73;;;;;;;19.10;55.22;100748.22;5548906;32;34192;-60
2023/08/08 07:56:38;;;;;;;4.55;1.67;;;;;;;19.22;54.91;100753.75;5548757;32;33693;-60
2023/08/08 07:59:41;;;;;;;3.80;1.75;;;;;;;19.28;54.26;100749.72;5548666;32;33289;-60
2023/08/08 08:02:45;;;;;;;6.40;1.75;;;;;;;19.43;55.32;100760.00;5548455;32;33309;-60
2023/08/08 08:05:48;;;;;;;2.55;1.62;;;;;;;19.44;51.80;100749.94;5555931;32;33549;-61
2023/08/08 08:08:51;;;;;;;5.57;1.65;;;;;;;19.48;53.61;100751.66;5567771;32;33603;-61
2023/08/08 08:11:53;;;;;;;3.78;1.67;;;;;;;19.52;53.61;100746.34;5567946;32;33806;-60
2023/08/08 08:14:56;;;;;;;7.60;3.15;;;;;;;19.69;55.18;100750.88;5566954;32;33585;-61
2023/08/08 08:17:58;;;;;;;7.20;2.20;;;;;;;19.75;54.64;100744.12;5567578;32;34252;-61
2023/08/08 08:21:01;;;;;;;5.37;1.80;;;;;;;19.84;54.45;100747.56;5567927;32;33686;-61
2023/08/08 08:24:03;;;;;;;2.87;1.73;;;;;;;20.00;56.47;100747.75;5567697;32;33667;-60
2023/08/08 08:27:06;;;;;;;3.30;1.65;;;;;;;19.98;51.38;100741.03;5567965;32;33720;-60
2023/08/08 08:30:12;;;;;;;4.90;2.33;;;;;;;20.02;49.34;100745.47;5567709;32;33368;-60
2023/08/08 08:33:14;;;;;;;4.28;2.40;;;;;;;19.97;50.62;100747.59;5566817;32;34419;-61
2023/08/08 08:36:17;;;;;;;4.32;1.80;;;;;;;20.09;52.74;100747.66;5567617;32;33541;-60
2023/08/08 08:39:19;;;;;;;3.97;1.80;;;;;;;20.14;51.60;100750.16;5567808;32;33702;-63
2023/08/08 08:42:22;;;;;;;2.80;1.50;;;;;;;20.09;52.33;100742.19;5567547;32;32962;-63
2023/08/08 08:45:25;;;;;;;3.72;1.80;;;;;;;20.12;54.05;100752.41;5567373;32;34328;-63
2023/08/08 08:48:28;;;;;;;3.03;1.70;;;;;;;20.24;55.55;100743.50;5567310;32;33552;-63
2023/08/08 08:51:30;;;;;;;6.10;1.90;;;;;;;20.23;53.56;100744.63;5569050;32;33695;-63
2023/08/08 08:54:33;;;;;;;9.43;1.80;;;;;;;20.22;55.24;100745.75;5566097;32;33584;-63
2023/08/08 08:57:35;;;;;;;3.42;1.65;;;;;;;20.25;52.17;100736.94;5570182;32;33734;-63
2023/08/08 09:00:39;;;;;;;2.53;1.70;;;;;;;20.26;52.11;100746.66;5570088;32;33585;-63
2023/08/08 09:03:44;;;;;;;4.47;2.05;;;;;;;20.34;52.79;100745.81;5569835;32;33811;-63
2023/08/08 09:06:48;;;;;;;4.57;2.00;;;;;;;20.40;52.01;100755.34;5569795;32;33772;-63
2023/08/08 09:09:51;;;;;;;4.75;2.00;;;;;;;20.43;52.67;100754.69;5569847;32;34253;-62
2023/08/08 09:12:54;;;;;;;4.15;1.90;;;;;;;20.36;51.27;100757.94;5554511;32;33420;-63
2023/08/08 09:15:56;;;;;;;7.43;2.50;;;;;;;20.44;53.90;100767.16;5550100;32;34393;-63
2023/08/08 09:19:00;;;;;;;3.33;2.10;;;;;;;20.44;51.24;100764.44;5550370;32;33560;-63
2023/08/08 09:22:03;;;;;;;2.47;1.62;;;;;;;20.43;49.85;100762.84;5550131;32;33595;-63
2023/08/08 09:25:07;;;;;;;3.75;1.75;;;;;;;20.45;53.66;100749.66;5550340;32;33772;-63
2023/08/08 09:28:10;;;;;;;4.95;1.90;;;;;;;20.44;52.63;100761.69;5550298;32;33669;-62
2023/08/08 09:31:12;;;;;;;3.80;1.83;;;;;;;20.44;54.91;100758.97;5550434;32;33703;-62
2023/08/08 09:34:14;;;;;;;4.07;1.80;;;;;;;20.50;53.64;100765.81;5555594;32;34300;-63
2023/08/08 09:37:18;;;;;;;9.02;2.53;;;;;;;20.63;50.53;100764.72;5569512;32;33699;-62
2023/08/08 09:40:22;;;;;;;23.35;2.33;;;;;;;20.62;51.90;100770.50;5568345;32;34537;-62
2023/08/08 09:43:25;;;;;;;6.35;1.70;;;;;;;20.61;52.15;100768.91;5569037;32;33701;-62
2023/08/08 09:46:29;;;;;;;4.28;1.70;;;;;;;20.63;51.74;100769.37;5569106;32;34432;-62
2023/08/08 09:49:34;;;;;;;5.90;1.60;;;;;;;20.65;48.92;100764.38;5569445;32;33847;-62
2023/08/08 09:52:40;;;;;;;4.43;1.70;;;;;;;20.64;48.19;100760.06;5568219;32;33919;-60
2023/08/08 09:55:43;;;;;;;5.00;2.10;;;;;;;20.53;45.86;100777.97;5569271;32;33864;-60
2023/08/08 09:58:46;;;;;;;5.15;2.08;;;;;;;20.38;50.51;100765.78;5569391;32;33756;-61
2023/08/08 10:01:50;;;;;;;5.85;2.10;;;;;;;20.43;53.28;100773.75;5569228;32;34326;-60
2023/08/08 10:04:53;;;;;;;4.10;2.40;;;;;;;20.41;48.24;100765.87;5569030;32;33649;-60
2023/08/08 10:07:58;;;;;;;6.60;2.00;;;;;;;20.36;48.68;100763.41;5569066;32;33614;-61
2023/08/08 10:11:02;;;;;;;4.43;2.10;;;;;;;20.45;48.34;100760.56;5568267;32;33683;-60
2023/08/08 10:14:04;;;;;;;3.65;1.83;;;;;;;20.53;57.79;100762.44;5569089;32;33684;-61
2023/08/08 10:17:06;;;;;;;4.18;1.83;;;;;;;20.64;51.96;100760.06;5569088;32;34917;-61
2023/08/08 10:20:17;;;;;;;3.87;1.90;;;;;;;20.71;51.56;100754.84;5568634;32;33633;-61
2023/08/08 10:23:20;;;;;;;5.87;2.17;;;;;;;20.79;51.36;100764.03;5569332;32;33631;-61
2023/08/08 10:26:22;;;;;;;3.85;1.70;;;;;;;20.95;62.51;100755.97;5569046;32;34403;-61
2023/08/08 10:29:26;;;;;;;10.82;2.05;;;;;;;21.00;52.16;100758.50;5569351;32;34369;-61
2023/08/08 10:32:28;;;;;;;6.20;2.10;;;;;;;21.05;51.40;100744.63;5569338;32;34305;-61
2023/08/08 10:35:37;;;;;;;3.50;1.55;;;;;;;21.12;56.28;100737.47;5568951;32;34314;-61
2023/08/08 10:38:52;;;;;;;4.47;1.90;;;;;;;21.08;48.57;100744.72;5567573;32;34244;-61
2023/08/08 10:41:54;;;;;;;3.22;1.58;;;;;;;20.99;48.17;100735.09;5567833;32;33938;-61
2023/08/08 10:45:00;;;;;;;3.50;1.90;;;;;;;20.94;48.95;100743.50;5567570;32;33794;-61
2023/08/08 10:48:08;;;;;;;3.35;1.50;;;;;;;20.91;50.60;100744.19;5568401;32;34271;-61
2023/08/08 10:51:14;;;;;;;4.97;1.70;;;;;;;20.90;47.48;100737.16;5568435;32;33851;-61
2023/08/08 10:54:21;;;;;;;;;;;;;;;20.94;52.63;100738.06;5568161;32;33980;-61
2023/08/08 10:57:27;;;;;;;2.97;1.73;;;;;;;20.84;47.21;100740.09;5569052;32;34733;-60
2023/08/08 11:00:32;;;;;;;6.25;2.30;;;;;;;21.04;54.01;100738.37;5561515;32;34508;-60
2023/08/08 11:03:39;;;;;;;7.18;1.80;;;;;;;21.18;68.68;100731.78;5553648;32;33736;-60
2023/08/08 11:06:41;;;;;;;4.45;1.80;;;;;;;21.07;50.01;100740.44;5566012;32;34406;-61
2023/08/08 11:09:44;;;;;;;2.67;1.60;;;;;;;20.98;49.05;100738.97;5565815;32;33610;-61
2023/08/08 11:12:59;;;;;;;5.07;2.00;;;;;;;20.82;49.77;100739.63;5565653;32;33073;-60
2023/08/08 11:16:04;;;;;;;4.95;2.00;;;;;;;20.95;53.19;100740.44;5567048;32;34260;-60
2023/08/08 11:19:07;;;;;;;6.18;1.87;;;;;;;20.97;49.80;100735.44;5567118;32;33738;-61
2023/08/08 11:22:11;;;;;;;1.92;1.60;;;;;;;21.05;49.92;100744.63;5566786;32;33830;-61
2023/08/08 11:25:14;;;;;;;6.45;1.70;;;;;;;21.13;51.75;100741.00;5567583;32;34607;-61
2023/08/08 11:28:17;;;;;;;3.00;1.50;;;;;;;21.21;50.44;100745.53;5562571;32;34325;-60
2023/08/08 11:31:23;;;;;;;3.25;1.80;;;;;;;21.22;48.78;100738.91;5566599;32;33735;-60
2023/08/08 11:34:25;;;;;;;7.47;2.00;;;;;;;21.27;49.43;100738.69;5560871;32;34389;-60
2023/08/08 11:37:28;;;;;;;4.53;2.00;;;;;;;21.30;59.15;100739.94;5561335;32;33605;-60
2023/08/08 11:40:31;;;;;;;5.60;1.95;;;;;;;21.48;66.14;100726.84;5563558;32;34615;-61
2023/08/08 11:43:34;;;;;;;2.72;1.73;;;;;;;21.50;51.20;100736.28;5567061;32;33635;-60
2023/08/08 11:46:46;;;;;;;3.37;1.90;;;;;;;21.44;49.42;100728.69;5568283;32;33660;-60
2023/08/08 11:49:51;;;;;;;6.40;2.55;;;;;;;21.30;47.85;100738.00;5567577;32;33687;-60
2023/08/08 11:52:55;;;;;;;4.35;2.08;;;;;;;21.26;48.99;100725.41;5568648;32;33843;-60
2023/08/08 11:55:59;;;;;;;6.95;1.75;;;;;;;21.22;47.93;100719.03;5568218;32;34403;-60
2023/08/08 11:59:02;;;;;;;3.58;1.80;;;;;;;21.23;47.75;100716.00;5568410;32;33681;-60
2023/08/08 12:02:05;;;;;;;5.05;1.62;;;;;;;21.33;50.21;100712.78;5568210;32;34329;-60
2023/08/08 12:05:16;;;;;;;4.25;1.75;;;;;;;21.37;49.38;100706.66;5555468;32;34300;-60
2023/08/08 12:08:20;;;;;;;3.67;1.55;;;;;;;21.42;49.86;100707.19;5548697;32;34227;-61
2023/08/08 12:11:22;;;;;;;3.55;2.37;;;;;;;21.53;56.79;100708.31;5565852;32;33711;-61
2023/08/08 12:14:27;;;;;;;6.67;2.50;;;;;;;21.49;48.15;100698.44;5567994;32;33297;-61
2023/08/08 12:17:30;;;;;;;2.65;1.67;;;;;;;21.47;48.20;100687.09;5565957;32;34326;-61
2023/08/08 12:20:33;;;;;;;3.58;2.00;;;;;;;21.47;55.54;100696.06;5557117;32;33671;-61
2023/08/08 12:23:36;;;;;;;4.45;2.37;;;;;;;21.49;47.91;100685.63;5556794;32;33794;-61
2023/08/08 12:26:39;;;;;;;3.85;1.70;;;;;;;21.56;45.31;100685.81;5567734;32;34346;-61
2023/08/08 12:29:41;;;;;;;2.47;1.70;;;;;;;21.58;46.28;100682.72;5569768;32;33748;-61
2023/08/08 12:32:44;;;;;;;2.33;1.70;;;;;;;21.65;48.88;100676.66;5569783;32;34383;-61
2023/08/08 12:35:48;;;;;;;2.65;1.55;;;;;;;21.66;43.97;100681.00;5567110;32;34353;-61
2023/08/08 12:38:50;;;;;;;4.87;2.35;;;;;;;21.71;47.88;100678.81;5566205;31;34571;-62
2023/08/08 12:41:52;;;;;;;6.50;2.67;;;;;;;21.74;47.30;100672.66;5569739;32;33589;-62
2023/08/08 12:44:55;;;;;;;4.15;1.75;;;;;;;21.74;43.79;100671.88;5569602;32;33698;-61
2023/08/08 12:47:58;;;;;;;4.10;1.83;;;;;;;21.76;44.90;100675.84;5569041;32;32264;-61
2023/08/08 12:51:01;;;;;;;3.67;1.80;;;;;;;21.83;46.85;100669.78;5567051;32;34248;-61
2023/08/08 12:54:03;;;;;;;3.25;1.60;;;;;;;21.89;45.99;100662.12;5568625;32;34393;-62
2023/08/08 12:57:06;;;;;;;4.12;1.67;;;;;;;22.02;50.43;100666.38;5569597;32;33611;-61
2023/08/08 13:00:09;;;;;;;3.22;1.60;;;;;;;22.11;53.24;100666.97;5567816;32;33714;-62
2023/08/08 13:03:12;;;;;;;3.42;1.70;;;;;;;21.96;43.68;100668.56;5570182;32;34357;-62
2023/08/08 13:06:15;;;;;;;4.00;2.05;;;;;;;21.93;44.24;100663.81;5569635;32;33333;-61
2023/08/08 13:09:17;;;;;;;2.65;1.50;;;;;;;22.05;42.88;100654.72;5570291;32;33662;-61
2023/08/08 13:12:21;;;;;;;3.03;1.75;;;;;;;21.95;40.34;100656.06;5570087;32;33680;-61
2023/08/08 13:15:23;;;;;;;11.02;2.10;;;;;;;21.87;41.50;100665.19;5569725;32;33705;-61
2023/08/08 13:18:25;;;;;;;9.13;2.15;;;;;;;21.85;42.44;100663.94;5569858;32;33700;-61
2023/08/08 13:21:28;;;;;;;3.00;1.70;;;;;;;22.00;46.55;100665.94;5570270;32;34349;-61
2023/08/08 13:24:30;;;;;;;8.38;2.85;;;;;;;21.95;42.74;100667.00;5570025;32;33554;-61
2023/08/08 13:27:32;;;;;;;4.50;2.30;;;;;;;21.86;42.52;100662.84;5569704;32;33758;-62
2023/08/08 13:30:36;;;;;;;149.93;17.92;;;;;;;21.75;43.34;100671.50;5570032;32;33656;-61
2023/08/08 13:33:38;;;;;;;6.90;1.83;;;;;;;21.59;44.16;100673.41;5570042;32;33708;-61
2023/08/08 13:36:40;;;;;;;9.05;1.80;;;;;;;21.38;45.62;100676.31;5569531;32;34580;-61
2023/08/08 13:39:43;;;;;;;3.22;1.83;;;;;;;21.30;46.84;100678.03;5569892;32;33671;-61
2023/08/08 13:42:47;;;;;;;5.85;1.85;;;;;;;21.19;45.15;100690.56;5569107;32;33733;-61
2023/08/08 13:45:50;;;;;;;4.85;1.40;;;;;;;21.21;46.43;100680.09;5569431;32;33784;-62
2023/08/08 13:48:52;;;;;;;11.93;2.08;;;;;;;21.06;44.72;100686.28;5569726;32;33707;-61
2023/08/08 13:51:55;;;;;;;26.73;4.47;;;;;;;21.06;45.58;100684.34;5569598;31;34409;-62
2023/08/08 13:54:57;;;;;;;10.32;1.77;;;;;;;21.05;44.78;100682.72;5569916;32;33677;-61
2023/08/08 13:57:59;;;;;;;346.25;37.22;;;;;;;21.00;42.34;100682.19;5569146;32;34338;-61
2023/08/08 14:01:02;;;;;;;81.12;8.88;;;;;;;20.99;51.29;100683.31;5561224;32;33660;-61
2023/08/08 14:04:05;;;;;;;10.93;2.40;;;;;;;20.88;49.86;100681.03;5558308;32;33630;-61
2023/08/08 14:07:08;;;;;;;55.17;8.25;;;;;;;21.02;59.36;100677.16;5568868;32;33649;-62
2023/08/08 14:10:11;;;;;;;9.43;2.37;;;;;;;20.99;43.58;100677.84;5569631;32;34812;-61
2023/08/08 14:13:13;;;;;;;2.78;1.58;;;;;;;20.94;56.85;100675.38;5568633;32;33761;-61
2023/08/08 14:16:15;;;;;;;7.22;1.50;;;;;;;20.93;44.75;100671.84;5569253;32;33586;-61
2023/08/08 14:19:19;;;;;;;5.30;1.67;;;;;;;21.05;50.17;100677.28;5555029;32;33605;-61
2023/08/08 14:22:21;;;;;;;6.75;1.98;;;;;;;21.00;45.19;100676.72;5549961;32;33715;-61
2023/08/08 14:25:23;;;;;;;245.43;25.05;;;;;;;21.07;50.65;100672.28;5549935;32;34310;-61
2023/08/08 14:28:26;;;;;;;6.28;1.65;;;;;;;21.02;46.35;100664.31;5549929;32;33679;-64
2023/08/08 14:31:30;;;;;;;9.77;3.83;;;;;;;21.09;45.57;100670.03;5564297;32;34316;-62
2023/08/08 14:34:37;;;;;;;4.20;1.80;;;;;;;21.09;45.64;100666.47;5550019;32;34374;-64
2023/08/08 14:37:40;;;;;;;3.55;1.60;;;;;;;21.07;45.63;100672.28;5549923;32;33751;-63
2023/08/08 14:40:43;;;;;;;2.72;1.30;;;;;;;21.10;48.94;100670.81;5549805;32;33926;-64
2023/08/08 14:43:45;;;;;;;2.87;1.30;;;;;;;21.06;45.24;100670.69;5549670;32;34376;-63
